createdAt,value
2023-08-16T00:01:01.034Z,23.92
2023-08-16T00:03:30.359Z,23.80
2023-08-16T00:05:58.768Z,24.15
2023-08-16T00:08:27.003Z,24.16
2023-08-16T00:10:55.312Z,24.18
2023-08-16T00:13:25.024Z,23.62
2023-08-16T00:15:53.300Z,23.58
2023-08-16T00:18:21.682Z,23.62
2023-08-16T00:20:50.137Z,23.87
2023-08-16T00:23:18.424Z,23.57
2023-08-16T00:25:46.732Z,23.60
2023-08-16T00:28:14.957Z,23.81
2023-08-16T00:30:44.675Z,23.88
2023-08-16T00:33:13.061Z,23.92
2023-08-16T00:35:41.302Z,24.00
2023-08-16T00:38:09.665Z,23.88
2023-08-16T00:40:37.834Z,23.97
2023-08-16T00:43:06.485Z,23.90
2023-08-16T00:45:34.965Z,23.88
2023-08-16T00:48:04.708Z,23.88
2023-08-16T00:50:33.324Z,23.83
2023-08-16T00:53:03.421Z,23.89
2023-08-16T00:55:31.957Z,23.85
2023-08-16T00:58:00.326Z,23.81
2023-08-16T01:00:29.509Z,23.52
2023-08-16T01:02:57.998Z,23.55
2023-08-16T01:05:28.454Z,23.69
2023-08-16T01:07:56.783Z,23.68
2023-08-16T01:10:34.082Z,23.79
2023-08-16T01:13:10.754Z,23.50
2023-08-16T01:15:43.120Z,23.24
2023-08-16T01:18:12.745Z,23.48
2023-08-16T01:20:43.095Z,23.25
2023-08-16T01:23:17.940Z,23.14
2023-08-16T01:25:50.746Z,22.87
2023-08-16T01:28:21.366Z,23.05
2023-08-16T01:30:50.129Z,23.15
2023-08-16T01:33:18.512Z,23.13
2023-08-16T01:35:47.092Z,23.29
2023-08-16T01:38:15.447Z,23.15
2023-08-16T01:40:51.822Z,22.98
2023-08-16T01:43:22.554Z,23.03
2023-08-16T01:45:53.211Z,22.85
2023-08-16T01:48:24.033Z,22.85
2023-08-16T01:50:52.583Z,23.09
2023-08-16T01:53:21.517Z,23.25
2023-08-16T01:55:49.820Z,23.25
2023-08-16T01:58:18.659Z,23.15
2023-08-16T02:00:48.508Z,23.21
2023-08-16T02:03:16.957Z,23.27
2023-08-16T02:05:45.639Z,23.20
2023-08-16T02:08:13.961Z,23.09
2023-08-16T02:10:42.337Z,23.03
2023-08-16T02:13:10.722Z,23.22
2023-08-16T02:15:39.110Z,23.25
2023-08-16T02:18:12.234Z,23.11
2023-08-16T02:20:40.984Z,22.55
2023-08-16T02:23:09.848Z,22.34
2023-08-16T02:25:38.148Z,22.11
2023-08-16T02:28:06.769Z,21.53
2023-08-16T02:30:35.025Z,21.71
2023-08-16T02:33:03.289Z,22.09
2023-08-16T02:35:33.223Z,22.20
2023-08-16T02:38:01.533Z,22.11
2023-08-16T02:40:29.776Z,22.31
2023-08-16T02:42:58.038Z,21.96
2023-08-16T02:45:26.327Z,22.34
2023-08-16T02:47:57.047Z,22.45
2023-08-16T02:50:25.602Z,22.51
2023-08-16T02:52:55.319Z,22.22
2023-08-16T02:55:23.576Z,22.09
2023-08-16T02:57:52.490Z,21.60
2023-08-16T03:00:21.120Z,21.34
2023-08-16T03:02:49.548Z,21.75
2023-08-16T03:05:17.883Z,22.00
2023-08-16T03:07:46.147Z,22.20
2023-08-16T03:10:15.784Z,22.34
2023-08-16T03:12:44.152Z,22.48
2023-08-16T03:15:13.140Z,22.47
2023-08-16T03:17:41.474Z,22.28
2023-08-16T03:20:11.289Z,22.71
2023-08-16T03:22:39.571Z,22.74
2023-08-16T03:25:08.226Z,22.80
2023-08-16T03:27:37.975Z,22.81
2023-08-16T03:30:07.760Z,22.81
2023-08-16T03:32:36.109Z,22.84
2023-08-16T03:35:04.535Z,22.51
2023-08-16T03:37:33.617Z,22.83
2023-08-16T03:40:01.943Z,22.47
2023-08-16T03:42:31.240Z,22.55
2023-08-16T03:45:00.992Z,22.43
2023-08-16T03:47:31.357Z,21.58
2023-08-16T03:50:00.926Z,21.48
2023-08-16T03:52:29.256Z,21.82
2023-08-16T03:54:57.533Z,22.14
2023-08-16T03:57:26.189Z,22.40
2023-08-16T03:59:56.179Z,22.52
2023-08-16T04:02:26.118Z,22.56
2023-08-16T04:04:55.600Z,22.54
2023-08-16T04:07:24.613Z,22.63
2023-08-16T04:09:53.138Z,22.37
2023-08-16T04:12:21.469Z,22.35
2023-08-16T04:14:49.876Z,22.62
2023-08-16T04:17:18.184Z,22.50
2023-08-16T04:19:47.834Z,22.56
2023-08-16T04:22:16.241Z,22.56
2023-08-16T04:24:44.488Z,21.61
2023-08-16T04:27:12.710Z,20.82
2023-08-16T04:29:41.521Z,21.55
2023-08-16T04:32:09.857Z,21.91
2023-08-16T04:34:38.149Z,21.89
2023-08-16T04:37:07.898Z,22.50
2023-08-16T04:39:36.157Z,22.08
2023-08-16T04:42:04.561Z,22.04
2023-08-16T04:44:32.821Z,22.36
2023-08-16T04:47:01.095Z,22.63
2023-08-16T04:49:29.602Z,22.57
2023-08-16T04:51:57.983Z,22.91
2023-08-16T04:54:27.675Z,22.90
2023-08-16T04:56:56.010Z,23.10
2023-08-16T04:59:24.391Z,23.22
2023-08-16T05:01:52.682Z,23.36
2023-08-16T05:04:20.989Z,23.40
2023-08-16T05:06:49.273Z,23.44
2023-08-16T05:09:17.512Z,23.50
2023-08-16T05:11:47.207Z,23.37
2023-08-16T05:14:15.504Z,23.50
2023-08-16T05:16:43.924Z,23.28
2023-08-16T05:19:12.124Z,22.99
2023-08-16T05:21:40.415Z,23.08
2023-08-16T05:24:09.401Z,22.47
2023-08-16T05:26:37.931Z,22.23
2023-08-16T05:29:07.742Z,22.31
2023-08-16T05:31:36.226Z,21.97
2023-08-16T05:34:04.557Z,22.53
2023-08-16T05:36:32.930Z,22.28
2023-08-16T05:39:01.173Z,21.88
2023-08-16T05:41:30.167Z,22.26
2023-08-16T05:43:58.438Z,22.49
2023-08-16T05:46:28.116Z,22.81
2023-08-16T05:48:56.479Z,22.75
2023-08-16T05:51:24.854Z,22.96
2023-08-16T05:53:53.244Z,22.98
2023-08-16T05:56:21.557Z,23.44
2023-08-16T05:58:49.825Z,23.62
2023-08-16T06:01:18.370Z,24.10
2023-08-16T06:03:48.133Z,24.47
2023-08-16T06:06:16.728Z,24.36
2023-08-16T06:08:45.087Z,24.43
2023-08-16T06:11:13.531Z,24.55
2023-08-16T06:13:41.841Z,24.70
2023-08-16T06:16:10.188Z,25.23
2023-08-16T06:18:38.573Z,25.70
2023-08-16T06:21:10.792Z,26.00
2023-08-16T06:23:39.458Z,26.22
2023-08-16T06:26:07.804Z,26.18
2023-08-16T06:28:36.136Z,26.24
2023-08-16T06:31:05.037Z,26.81
2023-08-16T06:33:33.897Z,27.24
2023-08-16T06:36:02.169Z,27.26
2023-08-16T06:38:32.012Z,27.80
2023-08-16T06:41:00.343Z,27.56
2023-08-16T06:43:28.703Z,27.61
2023-08-16T06:45:58.139Z,28.26
2023-08-16T06:48:26.453Z,28.22
2023-08-16T06:50:56.209Z,28.80
2023-08-16T06:53:24.547Z,29.21
2023-08-16T06:55:55.659Z,29.60
2023-08-16T06:58:23.981Z,30.00
2023-08-16T07:00:52.310Z,30.37
2023-08-16T07:03:20.837Z,30.27
2023-08-16T07:05:49.228Z,30.48
2023-08-16T07:08:17.553Z,31.18
2023-08-16T07:10:46.130Z,31.62
2023-08-16T07:13:16.055Z,31.72
2023-08-16T07:15:44.430Z,31.43
2023-08-16T07:18:12.840Z,31.51
2023-08-16T07:20:41.415Z,30.98
2023-08-16T07:23:09.724Z,31.11
2023-08-16T07:25:38.161Z,31.19
2023-08-16T07:28:07.858Z,31.61
2023-08-16T07:30:40.234Z,31.15
2023-08-16T07:33:08.653Z,31.41
2023-08-16T07:35:37.418Z,31.60
2023-08-16T07:38:06.032Z,31.18
2023-08-16T07:40:34.310Z,31.88
2023-08-16T07:43:02.612Z,32.66
2023-08-16T07:45:30.950Z,32.84
2023-08-16T07:48:00.667Z,32.72
2023-08-16T07:50:28.959Z,33.67
2023-08-16T07:52:57.227Z,33.34
2023-08-16T07:55:30.489Z,33.80
2023-08-16T07:57:58.840Z,32.46
2023-08-16T08:00:27.420Z,33.41
2023-08-16T08:03:00.315Z,33.07
2023-08-16T08:05:31.949Z,33.14
2023-08-16T08:08:02.012Z,33.42
2023-08-16T08:10:32.460Z,32.92
2023-08-16T08:13:00.963Z,33.24
2023-08-16T08:15:29.418Z,33.36
2023-08-16T08:17:57.894Z,32.49
2023-08-16T08:20:26.270Z,33.07
2023-08-16T08:22:56.092Z,33.56
2023-08-16T08:25:26.150Z,32.88
2023-08-16T08:27:54.552Z,33.31
2023-08-16T08:30:23.025Z,34.16
2023-08-16T08:32:51.377Z,33.58
2023-08-16T08:35:20.250Z,33.81
2023-08-16T08:37:48.551Z,33.61
2023-08-16T08:40:19.864Z,33.22
2023-08-16T08:42:49.356Z,33.65
2023-08-16T08:45:17.983Z,33.86
2023-08-16T08:47:46.565Z,33.58
2023-08-16T08:50:15.113Z,33.32
2023-08-16T08:52:49.445Z,33.22
2023-08-16T08:55:19.244Z,34.25
2023-08-16T08:57:51.708Z,34.76
2023-08-16T09:00:22.697Z,35.03
2023-08-16T09:02:52.120Z,35.50
2023-08-16T09:05:23.798Z,36.07
2023-08-16T09:07:53.249Z,35.77
2023-08-16T09:10:24.670Z,36.33
2023-08-16T09:12:53.329Z,36.52
2023-08-16T09:15:21.797Z,37.26
2023-08-16T09:17:52.201Z,36.87
2023-08-16T09:20:20.994Z,37.22
2023-08-16T09:22:50.940Z,37.49
2023-08-16T09:25:19.421Z,37.56
2023-08-16T09:27:49.172Z,36.64
2023-08-16T09:30:17.676Z,37.38
2023-08-16T09:32:47.099Z,37.70
2023-08-16T09:35:15.509Z,37.65
2023-08-16T09:37:45.049Z,38.52
2023-08-16T09:40:13.762Z,38.35
2023-08-16T09:42:42.486Z,38.59
2023-08-16T09:45:12.546Z,38.46
2023-08-16T09:50:23.306Z,39.89
2023-08-16T09:52:52.003Z,38.10
2023-08-16T09:55:30.952Z,37.14
2023-08-16T09:57:59.980Z,38.05
2023-08-16T10:00:31.414Z,38.90
2023-08-16T10:03:00.127Z,39.17
2023-08-16T10:08:15.145Z,39.34
2023-08-16T10:10:44.667Z,39.21
2023-08-16T10:13:13.773Z,39.39
2023-08-16T10:15:48.427Z,39.99
2023-08-16T10:18:21.154Z,39.59
2023-08-16T10:20:51.181Z,39.89
2023-08-16T10:23:22.026Z,39.88
2023-08-16T10:25:51.113Z,38.98
2023-08-16T10:28:22.821Z,38.85
2023-08-16T10:33:33.012Z,39.56
2023-08-16T10:36:02.127Z,40.38
2023-08-16T10:38:38.249Z,40.94
2023-08-16T10:41:13.787Z,41.30
2023-08-16T10:43:50.161Z,40.92
2023-08-16T10:46:32.450Z,41.24
2023-08-16T10:49:02.566Z,41.55
2023-08-16T10:51:31.302Z,42.12
2023-08-16T10:54:00.583Z,41.21
2023-08-16T10:56:45.213Z,41.04
2023-08-16T10:59:14.185Z,40.31
2023-08-16T11:01:52.077Z,40.17
2023-08-16T11:04:23.889Z,40.22
2023-08-16T11:07:02.671Z,40.33
2023-08-16T11:09:33.342Z,39.93
2023-08-16T11:12:06.865Z,40.63
2023-08-16T11:14:36.044Z,41.35
2023-08-16T11:17:05.962Z,41.18
2023-08-16T11:19:35.292Z,41.21
2023-08-16T11:22:04.958Z,41.81
2023-08-16T11:24:34.040Z,41.55
2023-08-16T11:27:04.498Z,41.52
2023-08-16T11:29:32.912Z,41.46
2023-08-16T11:32:01.446Z,40.67
2023-08-16T11:34:35.008Z,40.44
2023-08-16T11:37:03.424Z,40.35
2023-08-16T11:39:32.722Z,40.89
2023-08-16T11:42:05.289Z,40.73
2023-08-16T11:44:40.602Z,41.16
2023-08-16T11:47:12.341Z,40.85
2023-08-16T11:49:42.162Z,41.54
2023-08-16T11:52:10.447Z,42.22
2023-08-16T11:54:38.748Z,42.57
2023-08-16T11:57:17.984Z,41.87
2023-08-16T11:59:56.695Z,41.82
2023-08-16T12:02:26.146Z,41.81
2023-08-16T12:04:56.101Z,41.84
2023-08-16T12:07:25.645Z,42.39
2023-08-16T12:09:54.135Z,42.09
2023-08-16T12:12:22.430Z,42.40
2023-08-16T12:14:50.724Z,42.11
2023-08-16T12:17:19.115Z,42.46
2023-08-16T12:19:47.439Z,40.96
2023-08-16T12:22:17.153Z,41.12
2023-08-16T12:24:45.550Z,40.50
2023-08-16T12:27:13.877Z,40.80
2023-08-16T12:29:42.127Z,41.76
2023-08-16T12:32:10.421Z,42.27
2023-08-16T12:34:47.930Z,42.09
2023-08-16T12:37:28.388Z,42.41
2023-08-16T12:39:56.761Z,40.78
2023-08-16T12:42:25.166Z,40.15
2023-08-16T12:44:53.741Z,41.31
2023-08-16T12:47:22.212Z,41.07
2023-08-16T12:49:50.675Z,41.21
2023-08-16T12:52:18.926Z,40.49
2023-08-16T12:54:48.593Z,40.26
2023-08-16T12:57:25.619Z,40.78
2023-08-16T12:59:54.722Z,41.06
2023-08-16T13:02:36.350Z,41.19
2023-08-16T13:07:50.191Z,40.06
2023-08-16T13:18:21.711Z,40.73
2023-08-16T13:20:45.445Z,41.15
2023-08-16T13:23:15.289Z,41.48
2023-08-16T13:28:19.981Z,39.44
2023-08-16T13:31:06.129Z,40.11
2023-08-16T13:33:44.372Z,40.63
2023-08-16T13:36:23.157Z,40.63
2023-08-16T13:44:30.335Z,40.39
2023-08-16T13:46:50.235Z,39.52
2023-08-16T13:49:18.731Z,39.87
2023-08-16T13:51:47.028Z,38.44
2023-08-16T13:54:15.327Z,38.34
2023-08-16T13:56:48.572Z,38.45
2023-08-16T13:59:17.418Z,38.08
2023-08-16T14:01:45.899Z,37.73
2023-08-16T14:04:14.964Z,37.23
2023-08-16T14:06:43.727Z,36.69
2023-08-16T14:09:12.089Z,36.46
2023-08-16T14:11:42.396Z,36.04
2023-08-16T14:14:12.877Z,35.21
2023-08-16T14:16:41.309Z,35.09
2023-08-16T14:19:09.632Z,35.80
2023-08-16T14:21:41.216Z,35.84
2023-08-16T14:24:12.322Z,35.80
2023-08-16T14:26:40.646Z,35.52
2023-08-16T14:29:11.593Z,34.93
2023-08-16T14:31:41.891Z,34.77
2023-08-16T14:34:10.253Z,34.98
2023-08-16T14:36:38.581Z,35.12
2023-08-16T14:39:07.128Z,35.05
2023-08-16T14:41:35.539Z,34.88
2023-08-16T14:44:03.950Z,34.65
2023-08-16T14:46:32.294Z,34.27
2023-08-16T14:49:02.047Z,34.03
2023-08-16T14:51:30.391Z,34.12
2023-08-16T14:53:58.677Z,34.37
2023-08-16T14:56:26.891Z,33.91
2023-08-16T14:58:55.146Z,33.26
2023-08-16T15:01:23.502Z,33.49
2023-08-16T15:03:51.955Z,33.32
2023-08-16T15:06:23.223Z,33.24
2023-08-16T15:08:51.716Z,33.22
2023-08-16T15:11:20.926Z,32.94
2023-08-16T15:13:49.272Z,32.96
2023-08-16T15:16:20.023Z,32.87
2023-08-16T15:18:48.424Z,33.00
2023-08-16T15:21:16.691Z,33.24
2023-08-16T15:23:47.443Z,33.09
2023-08-16T15:26:15.772Z,33.06
2023-08-16T15:28:44.167Z,32.45
2023-08-16T15:31:12.457Z,32.90
2023-08-16T15:33:42.109Z,33.01
2023-08-16T15:36:11.893Z,32.89
2023-08-16T15:38:44.218Z,32.75
2023-08-16T15:41:14.415Z,33.12
2023-08-16T15:43:44.528Z,32.93
2023-08-16T15:46:14.929Z,32.87
2023-08-16T15:48:43.381Z,32.86
2023-08-16T15:51:11.932Z,32.65
2023-08-16T15:53:40.377Z,32.70
2023-08-16T15:56:08.643Z,32.74
2023-08-16T15:58:38.297Z,32.69
2023-08-16T16:01:08.182Z,32.40
2023-08-16T16:03:36.812Z,32.34
2023-08-16T16:06:05.624Z,32.27
2023-08-16T16:08:35.952Z,32.29
2023-08-16T16:11:04.209Z,32.16
2023-08-16T16:13:32.571Z,32.15
2023-08-16T16:16:02.365Z,31.86
2023-08-16T16:18:30.803Z,31.74
2023-08-16T16:20:59.179Z,31.59
2023-08-16T16:23:27.508Z,31.49
2023-08-16T16:25:57.229Z,31.57
2023-08-16T16:28:25.584Z,31.41
2023-08-16T16:30:56.716Z,31.33
2023-08-16T16:33:26.369Z,31.15
2023-08-16T16:35:54.670Z,31.04
2023-08-16T16:38:22.989Z,30.99
2023-08-16T16:40:51.313Z,31.03
2023-08-16T16:43:19.704Z,30.81
2023-08-16T16:45:48.069Z,31.02
2023-08-16T16:48:16.289Z,30.93
2023-08-16T16:50:46.019Z,30.97
2023-08-16T16:53:14.269Z,30.73
2023-08-16T16:55:42.568Z,30.85
2023-08-16T16:58:10.831Z,30.84
2023-08-16T17:00:39.230Z,30.91
2023-08-16T17:03:07.738Z,30.76
2023-08-16T17:05:36.192Z,30.84
2023-08-16T17:08:06.390Z,30.68
2023-08-16T17:10:34.673Z,30.65
2023-08-16T17:13:02.932Z,30.40
2023-08-16T17:15:31.245Z,30.65
2023-08-16T17:17:59.665Z,30.71
2023-08-16T17:20:27.970Z,30.84
2023-08-16T17:22:56.796Z,30.78
2023-08-16T17:25:26.664Z,30.45
2023-08-16T17:27:55.530Z,30.57
2023-08-16T17:30:23.878Z,30.31
2023-08-16T17:32:52.184Z,30.05
2023-08-16T17:35:20.532Z,29.93
2023-08-16T17:37:48.788Z,29.97
2023-08-16T17:40:17.017Z,30.09
2023-08-16T17:42:46.772Z,30.10
2023-08-16T17:45:15.118Z,30.12
2023-08-16T17:47:43.451Z,30.14
2023-08-16T17:50:12.003Z,29.69
2023-08-16T17:52:40.314Z,29.82
2023-08-16T17:55:09.335Z,29.54
2023-08-16T17:57:37.671Z,29.62
2023-08-16T18:00:10.837Z,29.58
2023-08-16T18:02:39.188Z,29.46
2023-08-16T18:05:08.159Z,29.57
2023-08-16T18:07:38.054Z,29.49
2023-08-16T18:10:07.200Z,29.57
2023-08-16T18:12:35.720Z,29.51
2023-08-16T18:15:04.075Z,29.23
2023-08-16T18:17:36.642Z,29.39
2023-08-16T18:20:05.810Z,29.24
2023-08-16T18:22:34.315Z,29.02
2023-08-16T18:25:04.146Z,29.08
2023-08-16T18:27:32.819Z,28.88
2023-08-16T18:30:01.356Z,28.91
2023-08-16T18:32:29.631Z,28.98
2023-08-16T18:34:59.335Z,29.06
2023-08-16T18:37:27.756Z,28.92
2023-08-16T18:39:56.440Z,28.88
2023-08-16T18:42:24.885Z,28.75
2023-08-16T18:44:53.276Z,28.74
2023-08-16T18:47:21.617Z,28.71
2023-08-16T18:49:49.923Z,28.73
2023-08-16T18:52:19.620Z,28.70
2023-08-16T18:54:47.932Z,28.50
2023-08-16T18:57:16.142Z,28.44
2023-08-16T18:59:44.606Z,28.57
2023-08-16T19:02:12.971Z,28.43
2023-08-16T19:04:41.629Z,28.33
2023-08-16T19:07:10.149Z,28.36
2023-08-16T19:09:39.786Z,28.54
2023-08-16T19:12:09.240Z,28.45
2023-08-16T19:14:40.387Z,27.97
2023-08-16T19:17:08.983Z,28.17
2023-08-16T19:19:37.400Z,28.23
2023-08-16T19:22:06.083Z,28.09
2023-08-16T19:24:34.458Z,28.13
2023-08-16T19:27:04.253Z,28.02
2023-08-16T19:29:32.542Z,27.83
2023-08-16T19:32:01.114Z,27.97
2023-08-16T19:34:29.456Z,27.87
2023-08-16T19:37:00.415Z,27.63
2023-08-16T19:39:28.661Z,27.73
2023-08-16T19:41:56.975Z,27.65
2023-08-16T19:44:26.787Z,27.73
2023-08-16T19:46:55.076Z,27.64
2023-08-16T19:49:23.436Z,27.50
2023-08-16T19:51:51.727Z,27.54
2023-08-16T19:54:19.965Z,27.54
2023-08-16T19:56:48.282Z,27.58
2023-08-16T19:59:16.552Z,27.47
2023-08-16T20:01:46.245Z,27.61
2023-08-16T20:04:14.578Z,27.63
2023-08-16T20:06:42.972Z,27.53
2023-08-16T20:09:11.318Z,27.56
2023-08-16T20:11:39.733Z,27.47
2023-08-16T20:14:07.989Z,27.41
2023-08-16T20:16:37.982Z,26.95
2023-08-16T20:19:09.242Z,27.39
2023-08-16T20:21:37.620Z,27.47
2023-08-16T20:24:06.531Z,27.39
2023-08-16T20:26:34.886Z,27.06
2023-08-16T20:29:06.059Z,26.48
2023-08-16T20:31:34.532Z,26.86
2023-08-16T20:34:03.926Z,27.58
2023-08-16T20:36:35.641Z,27.62
2023-08-16T20:39:03.956Z,27.51
2023-08-16T20:41:32.234Z,27.56
2023-08-16T20:44:00.467Z,27.52
2023-08-16T20:46:38.307Z,27.59
2023-08-16T20:49:10.273Z,27.68
2023-08-16T20:51:42.206Z,27.72
2023-08-16T20:54:14.294Z,27.52
2023-08-16T20:56:43.445Z,26.85
2023-08-16T20:59:11.730Z,27.63
2023-08-16T21:01:43.662Z,27.68
2023-08-16T21:04:13.587Z,27.71
2023-08-16T21:06:43.310Z,27.55
2023-08-16T21:09:11.633Z,27.40
2023-08-16T21:11:39.844Z,27.29
2023-08-16T21:14:08.219Z,27.19
2023-08-16T21:16:36.602Z,27.26
2023-08-16T21:19:05.252Z,26.84
2023-08-16T21:21:33.709Z,26.97
2023-08-16T21:24:04.119Z,27.12
2023-08-16T21:26:32.400Z,27.07
2023-08-16T21:29:00.848Z,27.05
2023-08-16T21:31:29.238Z,26.92
2023-08-16T21:33:58.000Z,26.61
2023-08-16T21:36:26.262Z,26.43
2023-08-16T21:38:55.042Z,26.64
2023-08-16T21:41:24.798Z,26.73
2023-08-16T21:43:53.066Z,26.82
2023-08-16T21:46:21.410Z,26.49
2023-08-16T21:48:49.638Z,26.33
2023-08-16T21:51:18.032Z,26.42
2023-08-16T21:53:46.359Z,26.54
2023-08-16T21:56:14.670Z,26.48
2023-08-16T21:58:44.500Z,25.73
2023-08-16T22:01:12.911Z,26.29
2023-08-16T22:03:41.290Z,26.41
2023-08-16T22:06:10.170Z,26.48
2023-08-16T22:08:38.489Z,26.37
2023-08-16T22:11:06.882Z,26.37
2023-08-16T22:13:36.794Z,26.12
2023-08-16T22:16:06.732Z,25.83
2023-08-16T22:18:37.772Z,25.66
2023-08-16T22:21:08.026Z,25.67
2023-08-16T22:23:37.885Z,25.74
2023-08-16T22:26:07.865Z,25.77
2023-08-16T22:28:39.139Z,25.74
2023-08-16T22:31:08.879Z,25.93
2023-08-16T22:33:37.240Z,25.86
2023-08-16T22:36:06.073Z,25.74
2023-08-16T22:38:34.380Z,25.69
2023-08-16T22:41:02.667Z,25.68
2023-08-16T22:43:30.924Z,25.42
2023-08-16T22:45:59.210Z,25.31
2023-08-16T22:48:28.899Z,25.41
2023-08-16T22:50:57.161Z,25.19
2023-08-16T22:53:25.481Z,25.19
2023-08-16T22:55:53.906Z,25.22
2023-08-16T22:58:22.376Z,24.92
2023-08-16T23:00:50.879Z,25.07
2023-08-16T23:03:19.176Z,25.10
2023-08-16T23:05:48.850Z,25.13
2023-08-16T23:08:17.188Z,24.99
2023-08-16T23:10:45.866Z,24.93
2023-08-16T23:13:14.261Z,25.15
2023-08-16T23:15:42.550Z,25.07
2023-08-16T23:18:10.769Z,24.93
2023-08-16T23:20:39.093Z,24.84
2023-08-16T23:23:09.178Z,24.99
2023-08-16T23:25:37.727Z,24.96
2023-08-16T23:28:06.780Z,24.86
2023-08-16T23:30:35.156Z,24.86
2023-08-16T23:33:03.702Z,24.93
2023-08-16T23:35:32.160Z,24.88
2023-08-16T23:38:00.472Z,24.78
2023-08-16T23:40:30.159Z,24.68
2023-08-16T23:42:58.371Z,24.66
2023-08-16T23:45:28.899Z,24.64
2023-08-16T23:47:57.385Z,24.30
2023-08-16T23:50:25.769Z,24.65
2023-08-16T23:52:54.080Z,24.60
2023-08-16T23:55:22.615Z,24.57
2023-08-16T23:57:52.436Z,24.64
